Time;durP1;ratioP1;P1;durP2;ratioP2;P2;SDS_P1;SDS_P2;PMS_P1;PMS_P2;Temp;Humidity;BMP_temperature;BMP_pressure;BME280_temperature;BME280_humidity;BME280_pressure;Samples;Min_cycle;Max_cycle;Signal;HPM_P1;HPM_P2
2021/01/10 00:01:28;;;;;;;10.27;8.13;;;;;;;;;;4830110;29;20190;-91
2021/01/10 00:03:57;;;;;;;11.25;7.63;;;;;;;;;;4829241;29;20190;-89
2021/01/10 00:06:24;;;;;;;8.02;6.70;;;;;;;;;;4829333;29;20217;-91
2021/01/10 00:08:51;;;;;;;10.15;7.38;;;;;;;;;;4829571;29;20313;-91
2021/01/10 00:11:18;;;;;;;8.18;6.72;;;;;;;;;;4829751;29;20225;-91
2021/01/10 00:13:45;;;;;;;10.15;7.93;;;;;;;;;;4828911;29;20245;-91
2021/01/10 00:16:12;;;;;;;12.35;7.35;;;;;;;;;;4831179;29;20212;-92
2021/01/10 00:18:39;;;;;;;8.38;7.50;;;;;;;;;;4833353;29;20213;-90
2021/01/10 00:21:07;;;;;;;9.05;6.43;;;;;;;;;;4833001;29;20222;-91
2021/01/10 00:23:34;;;;;;;10.40;7.28;;;;;;;;;;4832781;29;20193;-91
2021/01/10 00:26:01;;;;;;;9.35;6.93;;;;;;;;;;4833260;29;20198;-89
2021/01/10 00:28:28;;;;;;;11.65;7.95;;;;;;;;;;4832417;29;20218;-90
2021/01/10 00:30:55;;;;;;;8.70;7.78;;;;;;;;;;4832347;29;20579;-89
2021/01/10 00:33:22;;;;;;;11.90;8.73;;;;;;;;;;4832688;29;20219;-91
2021/01/10 00:35:49;;;;;;;14.93;9.23;;;;;;;;;;4832519;29;20198;-92
2021/01/10 00:38:17;;;;;;;8.98;8.07;;;;;;;;;;4833404;29;20284;-91
2021/01/10 00:40:44;;;;;;;12.18;9.50;;;;;;;;;;4833022;29;20214;-90
2021/01/10 00:43:11;;;;;;;13.13;10.45;;;;;;;;;;4832781;29;20247;-91
2021/01/10 00:45:38;;;;;;;9.30;7.85;;;;;;;;;;4832627;29;20210;-91
2021/01/10 00:48:06;;;;;;;9.60;8.30;;;;;;;;;;4832155;29;20216;-90
2021/01/10 00:50:33;;;;;;;10.13;8.32;;;;;;;;;;4832002;29;20593;-90
2021/01/10 00:53:00;;;;;;;11.57;9.13;;;;;;;;;;4832315;29;20194;-90
2021/01/10 00:55:27;;;;;;;9.90;7.97;;;;;;;;;;4831971;29;20197;-89
2021/01/10 00:57:54;;;;;;;10.50;7.80;;;;;;;;;;4832062;29;20194;-89
2021/01/10 01:00:24;;;;;;;8.25;7.38;;;;;;;;;;4831962;29;20190;-91
2021/01/10 01:02:51;;;;;;;15.38;8.93;;;;;;;;;;4832407;29;20488;-90
2021/01/10 01:05:18;;;;;;;10.02;8.25;;;;;;;;;;4832193;29;20179;-90
2021/01/10 01:07:45;;;;;;;12.00;9.50;;;;;;;;;;4832847;29;20218;-90
2021/01/10 01:10:13;;;;;;;11.30;8.65;;;;;;;;;;4832246;29;20222;-91
2021/01/10 01:12:41;;;;;;;13.80;9.63;;;;;;;;;;4831565;29;20206;-90
2021/01/10 01:15:10;;;;;;;13.32;9.95;;;;;;;;;;4832015;29;20250;-91
2021/01/10 01:17:37;;;;;;;11.02;8.80;;;;;;;;;;4831738;29;20194;-90
2021/01/10 01:20:05;;;;;;;11.48;8.73;;;;;;;;;;4786133;29;20206;-89
2021/01/10 01:22:32;;;;;;;14.05;9.68;;;;;;;;;;4786214;29;20221;-90
2021/01/10 01:25:01;;;;;;;11.57;9.30;;;;;;;;;;4831445;29;20186;-91
2021/01/10 01:27:28;;;;;;;10.90;8.43;;;;;;;;;;4830806;29;20229;-91
2021/01/10 01:29:58;;;;;;;10.55;7.72;;;;;;;;;;4831857;29;20214;-90
2021/01/10 01:32:25;;;;;;;11.45;9.05;;;;;;;;;;4832079;29;20575;-90
2021/01/10 01:34:51;;;;;;;11.63;8.98;;;;;;;;;;4831899;29;20212;-91
2021/01/10 01:37:18;;;;;;;11.70;9.32;;;;;;;;;;4832049;29;20206;-90
2021/01/10 01:39:45;;;;;;;10.45;8.38;;;;;;;;;;4831511;29;20479;-90
2021/01/10 01:42:14;;;;;;;10.88;9.20;;;;;;;;;;4831382;29;20200;-90
2021/01/10 01:44:41;;;;;;;12.40;9.80;;;;;;;;;;4831314;29;20233;-89
2021/01/10 01:47:09;;;;;;;11.55;9.35;;;;;;;;;;4831715;29;20250;-90
2021/01/10 01:49:36;;;;;;;12.73;8.95;;;;;;;;;;4831449;29;20225;-89
2021/01/10 01:52:03;;;;;;;11.35;9.48;;;;;;;;;;4831525;29;20210;-89
2021/01/10 01:54:30;;;;;;;12.07;8.88;;;;;;;;;;4831560;29;20477;-89
2021/01/10 01:56:57;;;;;;;10.70;8.13;;;;;;;;;;4831023;29;20218;-89
2021/01/10 01:59:24;;;;;;;11.95;8.38;;;;;;;;;;4831363;29;20539;-90
2021/01/10 02:01:51;;;;;;;11.15;8.52;;;;;;;;;;4830860;29;20591;-90
2021/01/10 02:04:24;;;;;;;11.57;8.88;;;;;;;;;;4831203;29;20193;-90
2021/01/10 02:07:00;;;;;;;12.13;9.73;;;;;;;;;;4831002;29;20206;-90
2021/01/10 02:09:28;;;;;;;9.40;7.43;;;;;;;;;;4830725;29;20599;-91
2021/01/10 02:11:57;;;;;;;13.52;9.13;;;;;;;;;;4831110;29;20198;-90
2021/01/10 02:14:26;;;;;;;10.05;8.65;;;;;;;;;;4830883;29;20237;-89
2021/01/10 02:16:54;;;;;;;13.02;10.10;;;;;;;;;;4831019;29;20191;-90
2021/01/10 02:19:31;;;;;;;12.27;10.35;;;;;;;;;;4813126;29;20214;-92
2021/01/10 02:22:05;;;;;;;16.75;10.43;;;;;;;;;;4813009;29;20202;-87
2021/01/10 02:24:34;;;;;;;11.43;10.23;;;;;;;;;;4806684;29;20209;-90
2021/01/10 02:27:03;;;;;;;13.20;9.50;;;;;;;;;;4812148;29;20566;-90
2021/01/10 02:29:30;;;;;;;13.68;9.45;;;;;;;;;;4812467;29;20226;-93
2021/01/10 02:31:57;;;;;;;11.45;9.10;;;;;;;;;;4812390;29;20199;-93
2021/01/10 02:34:25;;;;;;;12.60;10.80;;;;;;;;;;4812637;29;20557;-92
2021/01/10 02:37:05;;;;;;;12.57;10.00;;;;;;;;;;4812242;29;20191;-93
2021/01/10 02:39:43;;;;;;;11.63;9.13;;;;;;;;;;4811789;29;20557;-93
2021/01/10 02:42:19;;;;;;;11.73;8.35;;;;;;;;;;4812493;29;20267;-92
2021/01/10 02:44:56;;;;;;;12.27;8.45;;;;;;;;;;4812272;29;20241;-92
2021/01/10 02:47:23;;;;;;;13.15;9.63;;;;;;;;;;4812193;29;20524;-91
2021/01/10 02:49:49;;;;;;;11.07;9.50;;;;;;;;;;4812631;29;20241;-91
2021/01/10 02:52:16;;;;;;;11.15;8.73;;;;;;;;;;4812316;29;20201;-90
2021/01/10 02:54:44;;;;;;;11.10;9.50;;;;;;;;;;4811967;29;20213;-91
2021/01/10 02:57:17;;;;;;;15.15;9.85;;;;;;;;;;4812013;29;20186;-92
2021/01/10 02:59:46;;;;;;;11.38;9.27;;;;;;;;;;4812236;29;20521;-91
2021/01/10 03:02:13;;;;;;;9.40;7.85;;;;;;;;;;4812057;29;20638;-91
2021/01/10 03:04:41;;;;;;;14.18;9.27;;;;;;;;;;4812200;29;20211;-92
2021/01/10 03:07:08;;;;;;;12.23;10.35;;;;;;;;;;4811834;29;20221;-92
2021/01/10 03:09:35;;;;;;;14.00;10.48;;;;;;;;;;4812222;29;20210;-91
2021/01/10 03:12:24;;;;;;;15.30;11.45;;;;;;;;;;4812424;29;20213;-92
2021/01/10 03:14:52;;;;;;;13.43;9.57;;;;;;;;;;4812174;29;20265;-91
2021/01/10 03:17:30;;;;;;;12.40;9.23;;;;;;;;;;4811699;29;20191;-91
2021/01/10 03:19:57;;;;;;;11.00;9.75;;;;;;;;;;4811797;29;20214;-92
2021/01/10 03:22:24;;;;;;;11.43;8.70;;;;;;;;;;4812317;29;20210;-92
2021/01/10 03:24:51;;;;;;;13.15;9.88;;;;;;;;;;4811740;29;20202;-90
2021/01/10 03:27:18;;;;;;;10.48;8.30;;;;;;;;;;4811315;29;20194;-92
2021/01/10 03:29:45;;;;;;;11.82;9.60;;;;;;;;;;4811752;29;20214;-91
2021/01/10 03:32:12;;;;;;;11.32;10.18;;;;;;;;;;4811676;29;20205;-93
2021/01/10 03:34:39;;;;;;;12.73;9.55;;;;;;;;;;4811927;29;20194;-91
2021/01/10 03:37:06;;;;;;;12.52;8.95;;;;;;;;;;4811544;29;20195;-91
2021/01/10 03:39:33;;;;;;;14.05;9.75;;;;;;;;;;4812222;29;20211;-92
2021/01/10 03:42:00;;;;;;;12.02;9.40;;;;;;;;;;4811686;29;20264;-91
2021/01/10 03:44:28;;;;;;;14.55;10.32;;;;;;;;;;4811338;29;20238;-90
2021/01/10 03:46:55;;;;;;;11.93;9.35;;;;;;;;;;4811356;29;20209;-92
2021/01/10 03:49:22;;;;;;;13.07;10.50;;;;;;;;;;4811414;29;20221;-92
2021/01/10 03:51:49;;;;;;;14.65;10.48;;;;;;;;;;4810976;29;20226;-90
2021/01/10 03:54:16;;;;;;;13.88;10.02;;;;;;;;;;4811306;29;20183;-91
2021/01/10 03:56:43;;;;;;;11.82;9.32;;;;;;;;;;4810452;29;20210;-92
2021/01/10 03:59:10;;;;;;;15.88;10.25;;;;;;;;;;4811263;29;20202;-91
2021/01/10 04:01:38;;;;;;;10.90;8.15;;;;;;;;;;4811304;29;20209;-92
2021/01/10 04:04:05;;;;;;;11.90;8.55;;;;;;;;;;4811239;29;20187;-91
2021/01/10 04:06:32;;;;;;;9.73;8.48;;;;;;;;;;4810940;29;20198;-91
2021/01/10 04:08:59;;;;;;;11.15;9.02;;;;;;;;;;4810973;29;20201;-91
2021/01/10 04:11:26;;;;;;;9.38;8.35;;;;;;;;;;4811100;29;20214;-90
2021/01/10 04:13:53;;;;;;;10.32;9.05;;;;;;;;;;4811113;29;20241;-92
2021/01/10 04:16:20;;;;;;;12.23;9.30;;;;;;;;;;4810853;29;20202;-90
2021/01/10 04:18:48;;;;;;;10.70;8.10;;;;;;;;;;4810851;29;20207;-92
2021/01/10 04:21:15;;;;;;;14.35;9.52;;;;;;;;;;4810811;29;20191;-92
2021/01/10 04:23:42;;;;;;;12.43;9.05;;;;;;;;;;4811016;29;20195;-91
2021/01/10 04:26:09;;;;;;;11.07;8.48;;;;;;;;;;4810654;29;20193;-92
2021/01/10 04:28:36;;;;;;;10.65;8.57;;;;;;;;;;4811202;29;20210;-92
2021/01/10 04:31:04;;;;;;;10.90;8.77;;;;;;;;;;4810929;29;20218;-91
2021/01/10 04:33:31;;;;;;;10.63;8.73;;;;;;;;;;4810786;29;20433;-92
2021/01/10 04:35:59;;;;;;;10.25;8.57;;;;;;;;;;4810764;29;20211;-92
2021/01/10 04:38:26;;;;;;;9.60;7.97;;;;;;;;;;4811093;29;20199;-92
2021/01/10 04:40:53;;;;;;;9.95;8.05;;;;;;;;;;4811011;29;20187;-93
2021/01/10 04:43:20;;;;;;;12.50;8.27;;;;;;;;;;4810863;29;20231;-93
2021/01/10 04:45:47;;;;;;;9.23;7.93;;;;;;;;;;4810533;29;20258;-92
2021/01/10 04:48:14;;;;;;;12.20;8.75;;;;;;;;;;4811335;29;20213;-93
2021/01/10 04:50:41;;;;;;;10.48;9.23;;;;;;;;;;4811310;29;20253;-91
2021/01/10 04:53:10;;;;;;;9.05;7.57;;;;;;;;;;4811240;29;20207;-92
2021/01/10 04:55:38;;;;;;;9.55;8.00;;;;;;;;;;4810398;29;20209;-93
2021/01/10 04:58:07;;;;;;;11.45;8.95;;;;;;;;;;4810963;29;20209;-92
2021/01/10 05:00:36;;;;;;;9.73;8.25;;;;;;;;;;4810840;29;20195;-92
2021/01/10 05:03:09;;;;;;;10.80;8.68;;;;;;;;;;4813950;29;20541;-93
2021/01/10 05:05:37;;;;;;;11.20;9.43;;;;;;;;;;4814515;29;20214;-92
2021/01/10 05:08:10;;;;;;;8.60;6.95;;;;;;;;;;4814701;29;20478;-92
2021/01/10 05:10:38;;;;;;;10.07;7.82;;;;;;;;;;4814496;29;20496;-92
2021/01/10 05:13:05;;;;;;;10.63;9.00;;;;;;;;;;4813771;29;20609;-92
2021/01/10 05:15:33;;;;;;;10.75;8.68;;;;;;;;;;4813772;29;20201;-92
2021/01/10 05:18:01;;;;;;;10.70;8.00;;;;;;;;;;4813980;29;20205;-92
2021/01/10 05:20:30;;;;;;;8.15;7.25;;;;;;;;;;4813673;29;20225;-92
2021/01/10 05:22:57;;;;;;;9.98;8.65;;;;;;;;;;4814133;29;20205;-91
2021/01/10 05:25:26;;;;;;;9.77;8.77;;;;;;;;;;4813851;29;20259;-91
2021/01/10 05:27:55;;;;;;;9.68;7.80;;;;;;;;;;4813905;29;20462;-92
2021/01/10 05:30:30;;;;;;;9.88;7.57;;;;;;;;;;4813755;29;20214;-93
2021/01/10 05:33:02;;;;;;;9.45;8.45;;;;;;;;;;4813474;29;20572;-92
2021/01/10 05:35:29;;;;;;;8.43;7.53;;;;;;;;;;4813487;29;20190;-91
2021/01/10 05:37:57;;;;;;;9.10;8.00;;;;;;;;;;4813353;29;20281;-93
2021/01/10 05:40:31;;;;;;;8.73;6.80;;;;;;;;;;4813561;29;20198;-92
2021/01/10 05:43:07;;;;;;;10.02;8.25;;;;;;;;;;4813588;29;20226;-92
2021/01/10 05:45:36;;;;;;;10.77;9.57;;;;;;;;;;4809653;29;20245;-94
2021/01/10 05:48:12;;;;;;;10.20;8.88;;;;;;;;;;4809269;29;20198;-93
2021/01/10 05:50:43;;;;;;;11.70;9.23;;;;;;;;;;4813730;29;20234;-92
2021/01/10 05:53:18;;;;;;;9.43;7.93;;;;;;;;;;4813882;29;20225;-92
2021/01/10 05:56:00;;;;;;;9.60;7.78;;;;;;;;;;4813811;29;20209;-93
2021/01/10 05:58:29;;;;;;;11.07;8.60;;;;;;;;;;4814216;29;20218;-93
2021/01/10 06:00:58;;;;;;;11.70;7.53;;;;;;;;;;4813661;29;20214;-93
2021/01/10 06:03:28;;;;;;;11.15;7.78;;;;;;;;;;4813249;29;20438;-93
2021/01/10 06:05:56;;;;;;;9.55;7.65;;;;;;;;;;4812564;29;20213;-92
2021/01/10 06:08:28;;;;;;;9.23;7.00;;;;;;;;;;4813509;29;20565;-92
2021/01/10 06:10:55;;;;;;;10.10;7.20;;;;;;;;;;4813005;29;20225;-92
2021/01/10 06:13:23;;;;;;;8.13;6.57;;;;;;;;;;4811772;29;20230;-92
2021/01/10 06:15:50;;;;;;;7.70;6.93;;;;;;;;;;4811857;29;20206;-91
2021/01/10 06:18:17;;;;;;;10.73;7.97;;;;;;;;;;4811982;29;20212;-92
2021/01/10 06:20:45;;;;;;;9.30;7.57;;;;;;;;;;4811878;29;20267;-93
2021/01/10 06:23:11;;;;;;;8.23;7.03;;;;;;;;;;4812002;29;20190;-92
2021/01/10 06:25:40;;;;;;;9.25;6.85;;;;;;;;;;4812429;29;20207;-92
2021/01/10 06:28:11;;;;;;;9.43;7.60;;;;;;;;;;4812268;29;20562;-92
2021/01/10 06:30:44;;;;;;;9.88;7.85;;;;;;;;;;4812491;29;20198;-91
2021/01/10 06:33:13;;;;;;;10.05;8.13;;;;;;;;;;4811595;29;20221;-92
2021/01/10 06:35:41;;;;;;;11.48;8.30;;;;;;;;;;4811798;29;20211;-92
2021/01/10 06:38:11;;;;;;;8.02;7.22;;;;;;;;;;4812145;29;20279;-92
2021/01/10 06:40:41;;;;;;;10.18;7.50;;;;;;;;;;4811602;29;20198;-92
2021/01/10 06:43:09;;;;;;;8.98;7.25;;;;;;;;;;4811608;29;20230;-92
2021/01/10 06:45:39;;;;;;;8.75;7.75;;;;;;;;;;4811342;29;20191;-92
2021/01/10 06:48:07;;;;;;;9.50;8.38;;;;;;;;;;4812161;29;20209;-92
2021/01/10 06:50:34;;;;;;;7.97;7.18;;;;;;;;;;4811589;29;20191;-92
2021/01/10 06:53:06;;;;;;;9.20;7.63;;;;;;;;;;4811661;29;20203;-93
2021/01/10 06:55:34;;;;;;;10.00;8.43;;;;;;;;;;4811931;29;20631;-93
2021/01/10 06:58:07;;;;;;;10.48;8.25;;;;;;;;;;4812160;29;20206;-93
2021/01/10 07:00:53;;;;;;;8.05;6.70;;;;;;;;;;4811448;29;20471;-93
2021/01/10 07:03:21;;;;;;;9.18;7.60;;;;;;;;;;4812066;29;20297;-94
2021/01/10 07:06:08;;;;;;;9.13;7.20;;;;;;;;;;4811980;29;20218;-93
2021/01/10 07:08:41;;;;;;;10.52;7.53;;;;;;;;;;4812050;29;20539;-93
2021/01/10 07:11:45;;;;;;;8.45;6.95;;;;;;;;;;4811352;29;20593;-93
2021/01/10 07:14:29;;;;;;;9.15;8.15;;;;;;;;;;4790381;29;653131;-93
2021/01/10 07:17:18;;;;;;;7.90;6.88;;;;;;;;;;4812282;29;20210;-93
2021/01/10 07:19:49;;;;;;;8.95;8.02;;;;;;;;;;4812284;29;20193;-93
2021/01/10 07:22:34;;;;;;;10.30;7.50;;;;;;;;;;4812543;29;20211;-93
2021/01/10 07:25:35;;;;;;;9.25;7.28;;;;;;;;;;4811938;29;20205;-92
2021/01/10 07:28:42;;;;;;;7.55;6.75;;;;;;;;;;4739508;30;20211;-93
2021/01/10 07:31:19;;;;;;;9.40;7.22;;;;;;;;;;4670634;30;20614;-91
2021/01/10 07:33:48;;;;;;;8.57;7.30;;;;;;;;;;4670921;30;20216;-92
2021/01/10 07:36:15;;;;;;;9.40;7.80;;;;;;;;;;4669576;30;20476;-92
2021/01/10 07:38:43;;;;;;;10.70;7.97;;;;;;;;;;4669627;30;20298;-92
2021/01/10 07:41:30;;;;;;;9.00;7.22;;;;;;;;;;4669854;30;20207;-93
2021/01/10 07:43:58;;;;;;;8.05;7.25;;;;;;;;;;4670153;30;20245;-92
2021/01/10 07:47:01;;;;;;;9.05;7.85;;;;;;;;;;4670570;30;20216;-93
2021/01/10 07:49:52;;;;;;;8.73;7.10;;;;;;;;;;4665553;30;20587;-93
2021/01/10 07:52:56;;;;;;;7.68;6.32;;;;;;;;;;4669428;30;20235;-93
2021/01/10 07:55:33;;;;;;;9.95;7.95;;;;;;;;;;4669633;30;20200;-93
2021/01/10 07:58:21;;;;;;;8.48;7.20;;;;;;;;;;4670226;30;20285;-93
2021/01/10 08:00:53;;;;;;;10.02;7.60;;;;;;;;;;4669649;30;20192;-93
2021/01/10 08:03:23;;;;;;;9.27;8.38;;;;;;;;;;4670063;30;20227;-93
2021/01/10 08:06:03;;;;;;;8.15;7.35;;;;;;;;;;4784133;29;20473;-92
2021/01/10 08:08:43;;;;;;;8.93;7.55;;;;;;;;;;4811294;29;20265;-92
2021/01/10 08:11:11;;;;;;;9.63;8.60;;;;;;;;;;4811529;29;20202;-93
2021/01/10 08:13:39;;;;;;;8.90;8.00;;;;;;;;;;4811492;29;20238;-93
2021/01/10 08:16:09;;;;;;;12.88;10.20;;;;;;;;;;4811757;29;20561;-93
2021/01/10 08:18:38;;;;;;;11.20;8.88;;;;;;;;;;4780508;29;20277;-92
2021/01/10 08:21:08;;;;;;;9.82;8.50;;;;;;;;;;4811297;29;20520;-93
2021/01/10 08:23:36;;;;;;;9.45;8.27;;;;;;;;;;4811495;29;20263;-93
2021/01/10 08:26:10;;;;;;;10.25;9.05;;;;;;;;;;4811576;29;20275;-92
2021/01/10 08:28:40;;;;;;;10.13;8.50;;;;;;;;;;4780775;29;20222;-93
2021/01/10 08:31:10;;;;;;;9.45;8.43;;;;;;;;;;4811219;29;20452;-92
2021/01/10 08:33:37;;;;;;;9.10;8.02;;;;;;;;;;4811601;29;20206;-93
2021/01/10 08:36:14;;;;;;;9.90;7.90;;;;;;;;;;4811976;29;20271;-94
2021/01/10 08:38:53;;;;;;;9.40;8.40;;;;;;;;;;4815824;29;20529;-93
2021/01/10 08:41:27;;;;;;;9.63;8.38;;;;;;;;;;4814828;29;20243;-92
2021/01/10 08:43:57;;;;;;;10.05;8.15;;;;;;;;;;4814310;29;20239;-92
2021/01/10 08:46:25;;;;;;;12.45;10.10;;;;;;;;;;4815143;29;20581;-94
2021/01/10 08:48:52;;;;;;;8.68;7.78;;;;;;;;;;4814517;29;20280;-93
2021/01/10 08:51:32;;;;;;;11.73;9.32;;;;;;;;;;4815057;29;20199;-93
2021/01/10 08:53:59;;;;;;;9.68;8.15;;;;;;;;;;4815036;29;20217;-93
2021/01/10 08:56:27;;;;;;;8.82;7.90;;;;;;;;;;4814981;29;20218;-93
2021/01/10 08:58:56;;;;;;;8.85;6.50;;;;;;;;;;4814360;29;20187;-92
2021/01/10 09:01:25;;;;;;;11.35;8.77;;;;;;;;;;4814651;29;20228;-92
2021/01/10 09:04:00;;;;;;;9.82;7.88;;;;;;;;;;4824890;29;20209;-90
2021/01/10 09:06:42;;;;;;;9.02;8.00;;;;;;;;;;4832131;29;20201;-91
2021/01/10 09:09:20;;;;;;;10.32;8.32;;;;;;;;;;4832803;29;20202;-92
2021/01/10 09:12:00;;;;;;;9.63;7.55;;;;;;;;;;4833319;29;20232;-92
2021/01/10 09:14:29;;;;;;;9.45;8.00;;;;;;;;;;4831604;29;20237;-92
2021/01/10 09:16:56;;;;;;;9.68;8.15;;;;;;;;;;4832142;29;20576;-93
2021/01/10 09:19:25;;;;;;;11.48;8.77;;;;;;;;;;4832153;29;20575;-94
2021/01/10 09:21:52;;;;;;;8.98;7.68;;;;;;;;;;4832234;29;20199;-93
2021/01/10 09:24:19;;;;;;;9.02;8.13;;;;;;;;;;4832203;29;20542;-92
2021/01/10 09:26:46;;;;;;;10.35;8.48;;;;;;;;;;4831961;29;20257;-93
2021/01/10 09:29:20;;;;;;;10.57;8.82;;;;;;;;;;4831878;29;20212;-93
2021/01/10 09:31:49;;;;;;;8.52;7.18;;;;;;;;;;4831457;29;20196;-93
2021/01/10 09:34:23;;;;;;;8.48;7.57;;;;;;;;;;4831768;29;20644;-93
2021/01/10 09:36:50;;;;;;;8.65;7.35;;;;;;;;;;4834132;29;20198;-92
2021/01/10 09:39:17;;;;;;;9.52;7.82;;;;;;;;;;4844451;29;20219;-95
2021/01/10 09:41:54;;;;;;;9.48;8.45;;;;;;;;;;4836017;29;20541;-94
2021/01/10 09:44:22;;;;;;;11.73;7.88;;;;;;;;;;4832605;29;20539;-94
2021/01/10 09:46:53;;;;;;;9.98;8.68;;;;;;;;;;4832480;29;20948;-94
2021/01/10 09:49:25;;;;;;;12.18;8.32;;;;;;;;;;4830815;29;20213;-94
2021/01/10 09:51:54;;;;;;;9.05;7.93;;;;;;;;;;4831595;29;20286;-94
2021/01/10 09:54:23;;;;;;;10.50;8.63;;;;;;;;;;4831249;29;20190;-93
2021/01/10 09:56:51;;;;;;;12.65;8.52;;;;;;;;;;4831425;29;20190;-94
2021/01/10 09:59:36;;;;;;;9.60;7.80;;;;;;;;;;4831679;29;20540;-94
2021/01/10 10:02:10;;;;;;;10.63;8.07;;;;;;;;;;4831399;29;20274;-93
2021/01/10 10:04:37;;;;;;;9.40;8.32;;;;;;;;;;4831637;29;20202;-92
2021/01/10 10:07:05;;;;;;;10.93;8.73;;;;;;;;;;4833091;29;20206;-94
2021/01/10 10:09:46;;;;;;;12.13;9.35;;;;;;;;;;4844834;29;20220;-90
2021/01/10 10:12:15;;;;;;;10.25;8.38;;;;;;;;;;4850535;29;20213;-91
2021/01/10 10:14:55;;;;;;;9.65;8.38;;;;;;;;;;4849344;29;20305;-91
2021/01/10 10:17:26;;;;;;;10.30;8.38;;;;;;;;;;4849999;29;20560;-94
2021/01/10 10:19:53;;;;;;;12.90;9.65;;;;;;;;;;4849640;29;20278;-94
2021/01/10 10:22:28;;;;;;;8.60;7.70;;;;;;;;;;4849418;29;20568;-93
2021/01/10 10:24:56;;;;;;;12.63;9.45;;;;;;;;;;4849358;29;20197;-94
2021/01/10 10:27:26;;;;;;;10.32;8.27;;;;;;;;;;4849298;29;20288;-94
2021/01/10 10:29:54;;;;;;;8.55;7.65;;;;;;;;;;4849727;29;20221;-95
2021/01/10 10:32:21;;;;;;;11.98;9.50;;;;;;;;;;4849766;29;20229;-94
2021/01/10 10:34:48;;;;;;;10.73;8.85;;;;;;;;;;4848852;29;20192;-94
2021/01/10 10:37:16;;;;;;;23.42;8.63;;;;;;;;;;4850022;29;20452;-92
2021/01/10 10:39:44;;;;;;;13.05;10.35;;;;;;;;;;4849264;29;20287;-94
2021/01/10 10:42:14;;;;;;;12.02;9.75;;;;;;;;;;4849351;29;20189;-95
2021/01/10 10:44:41;;;;;;;9.50;8.48;;;;;;;;;;4849456;29;20233;-93
2021/01/10 10:47:13;;;;;;;10.35;8.13;;;;;;;;;;4849517;29;20225;-92
2021/01/10 10:49:41;;;;;;;9.45;8.45;;;;;;;;;;4849006;29;20205;-94
2021/01/10 10:52:10;;;;;;;13.45;9.82;;;;;;;;;;4848264;29;20276;-94
2021/01/10 10:54:37;;;;;;;11.35;8.95;;;;;;;;;;4848780;29;20280;-93
2021/01/10 10:57:06;;;;;;;11.10;9.25;;;;;;;;;;4849109;29;20542;-93
2021/01/10 10:59:33;;;;;;;11.70;9.23;;;;;;;;;;4840688;29;20221;-94
2021/01/10 11:02:00;;;;;;;12.52;9.75;;;;;;;;;;4830530;29;20553;-94
2021/01/10 11:04:28;;;;;;;13.25;9.82;;;;;;;;;;4830717;29;20202;-94
2021/01/10 11:06:55;;;;;;;10.90;9.45;;;;;;;;;;4830192;29;20561;-93
2021/01/10 11:09:22;;;;;;;11.57;10.20;;;;;;;;;;4830482;29;20265;-94
2021/01/10 11:11:49;;;;;;;11.77;9.82;;;;;;;;;;4830513;29;20277;-93
2021/01/10 11:14:18;;;;;;;11.05;9.43;;;;;;;;;;4830305;29;20324;-94
2021/01/10 11:16:49;;;;;;;12.35;9.77;;;;;;;;;;4830511;29;20260;-93
2021/01/10 11:19:16;;;;;;;10.07;9.02;;;;;;;;;;4827218;29;20213;-94
2021/01/10 11:21:46;;;;;;;10.80;9.10;;;;;;;;;;4838114;29;20517;-94
2021/01/10 11:24:15;;;;;;;11.48;10.23;;;;;;;;;;4847011;29;20583;-94
2021/01/10 11:26:44;;;;;;;11.55;9.35;;;;;;;;;;4829975;29;20212;-91
2021/01/10 11:29:12;;;;;;;12.68;10.18;;;;;;;;;;4830013;29;20202;-93
2021/01/10 11:31:41;;;;;;;11.15;9.30;;;;;;;;;;4828132;29;20289;-91
2021/01/10 11:34:10;;;;;;;12.45;10.27;;;;;;;;;;4829940;29;20222;-95
2021/01/10 11:36:41;;;;;;;11.07;9.23;;;;;;;;;;4831935;29;20225;-94
2021/01/10 11:39:09;;;;;;;12.45;9.93;;;;;;;;;;4830182;29;20236;-93
2021/01/10 11:41:36;;;;;;;10.48;8.88;;;;;;;;;;4829545;29;20209;-94
2021/01/10 11:44:05;;;;;;;12.68;10.05;;;;;;;;;;4829804;29;20657;-94
2021/01/10 11:46:32;;;;;;;10.85;8.85;;;;;;;;;;4830446;29;20214;-94
2021/01/10 11:48:59;;;;;;;9.10;8.20;;;;;;;;;;4829916;29;20612;-92
2021/01/10 11:51:26;;;;;;;9.60;7.72;;;;;;;;;;4830128;29;20205;-95
2021/01/10 11:53:53;;;;;;;10.23;8.55;;;;;;;;;;4831515;29;20712;-94
2021/01/10 11:56:21;;;;;;;11.82;9.18;;;;;;;;;;4832054;29;20202;-95
2021/01/10 11:58:48;;;;;;;12.35;9.40;;;;;;;;;;4830681;29;20528;-95
2021/01/10 12:01:16;;;;;;;10.10;8.75;;;;;;;;;;4830917;29;20215;-94
2021/01/10 12:03:43;;;;;;;10.20;8.32;;;;;;;;;;4830438;29;20561;-94
2021/01/10 12:06:17;;;;;;;11.30;8.70;;;;;;;;;;4830889;29;20202;-92
2021/01/10 12:08:45;;;;;;;10.25;8.98;;;;;;;;;;4827588;29;20220;-94
2021/01/10 12:11:16;;;;;;;11.60;9.13;;;;;;;;;;4829233;29;20497;-94
2021/01/10 12:13:45;;;;;;;9.70;8.18;;;;;;;;;;4829440;29;20238;-93
2021/01/10 12:16:12;;;;;;;11.68;9.75;;;;;;;;;;4829443;29;20202;-94
2021/01/10 12:18:40;;;;;;;11.95;9.43;;;;;;;;;;4829744;29;20210;-93
2021/01/10 12:21:08;;;;;;;11.32;9.93;;;;;;;;;;4829938;29;20213;-94
2021/01/10 12:23:35;;;;;;;13.65;9.70;;;;;;;;;;4830290;29;20488;-94
2021/01/10 12:26:02;;;;;;;10.25;8.90;;;;;;;;;;4829826;29;20216;-94
2021/01/10 12:28:30;;;;;;;11.23;9.23;;;;;;;;;;4833093;29;20290;-94
2021/01/10 12:31:11;;;;;;;11.18;9.13;;;;;;;;;;4837526;29;20258;-95
2021/01/10 12:33:42;;;;;;;10.73;9.50;;;;;;;;;;4791112;29;20643;-95
2021/01/10 12:36:12;;;;;;;10.70;8.10;;;;;;;;;;4818174;29;20306;-94
2021/01/10 12:38:40;;;;;;;9.85;8.82;;;;;;;;;;4841083;29;20209;-94
2021/01/10 12:41:08;;;;;;;11.32;9.30;;;;;;;;;;4832970;29;20212;-94
2021/01/10 12:43:44;;;;;;;9.80;8.30;;;;;;;;;;4831309;29;20229;-94
2021/01/10 12:46:12;;;;;;;11.50;9.13;;;;;;;;;;4841891;29;20197;-95
2021/01/10 12:48:39;;;;;;;11.45;9.05;;;;;;;;;;4840644;29;20618;-94
2021/01/10 12:51:06;;;;;;;9.98;8.98;;;;;;;;;;4831698;29;20302;-95
2021/01/10 12:53:35;;;;;;;13.20;10.18;;;;;;;;;;4835210;29;20412;-95
2021/01/10 12:56:03;;;;;;;12.40;9.48;;;;;;;;;;4831805;29;20222;-96
2021/01/10 12:58:30;;;;;;;10.35;8.70;;;;;;;;;;4835214;29;20214;-95
2021/01/10 13:00:57;;;;;;;11.13;8.75;;;;;;;;;;4831708;29;20305;-95
2021/01/10 13:03:25;;;;;;;11.73;10.35;;;;;;;;;;4829237;29;20576;-94
2021/01/10 13:05:52;;;;;;;13.02;10.45;;;;;;;;;;4828860;29;20275;-93
2021/01/10 13:08:26;;;;;;;14.27;10.80;;;;;;;;;;4829184;29;20202;-93
2021/01/10 13:10:58;;;;;;;12.75;9.65;;;;;;;;;;4829250;29;20449;-94
2021/01/10 13:13:27;;;;;;;11.88;9.45;;;;;;;;;;4828696;29;20321;-94
2021/01/10 13:15:54;;;;;;;9.82;8.38;;;;;;;;;;4829556;29;20627;-95
2021/01/10 13:18:21;;;;;;;12.63;9.45;;;;;;;;;;4829506;29;20633;-94
2021/01/10 13:20:49;;;;;;;11.10;9.55;;;;;;;;;;4828951;29;20214;-93
2021/01/10 13:23:16;;;;;;;11.75;9.32;;;;;;;;;;4829791;29;20214;-93
2021/01/10 13:25:43;;;;;;;10.73;9.63;;;;;;;;;;4831773;29;20202;-93
2021/01/10 13:28:13;;;;;;;14.95;10.95;;;;;;;;;;4832388;29;20257;-94
2021/01/10 13:30:40;;;;;;;10.88;8.77;;;;;;;;;;4831770;29;20214;-95
2021/01/10 13:33:07;;;;;;;13.45;10.02;;;;;;;;;;4830757;29;20520;-94
2021/01/10 13:35:34;;;;;;;12.05;10.38;;;;;;;;;;4831818;29;20205;-95
2021/01/10 13:38:02;;;;;;;11.48;9.00;;;;;;;;;;4832286;29;20209;-94
2021/01/10 13:40:32;;;;;;;10.68;8.82;;;;;;;;;;4831827;29;20201;-94
2021/01/10 13:43:01;;;;;;;10.63;9.40;;;;;;;;;;4833469;29;20205;-94
2021/01/10 13:45:29;;;;;;;16.55;12.43;;;;;;;;;;4833354;29;20434;-94
2021/01/10 13:48:02;;;;;;;11.10;9.75;;;;;;;;;;4833152;29;20293;-94
2021/01/10 13:50:29;;;;;;;10.20;9.05;;;;;;;;;;4832160;29;20205;-94
2021/01/10 13:52:59;;;;;;;9.73;7.85;;;;;;;;;;4831434;29;20206;-94
2021/01/10 13:55:30;;;;;;;9.25;8.25;;;;;;;;;;4831189;29;20250;-93
2021/01/10 13:58:05;;;;;;;8.85;7.95;;;;;;;;;;4831616;29;20290;-94
2021/01/10 14:00:32;;;;;;;9.60;7.65;;;;;;;;;;4832450;29;20232;-94
2021/01/10 14:02:59;;;;;;;11.60;9.35;;;;;;;;;;4831557;29;20482;-94
2021/01/10 14:05:27;;;;;;;11.55;9.00;;;;;;;;;;4831398;29;20640;-94
2021/01/10 14:07:54;;;;;;;11.20;10.00;;;;;;;;;;4833274;29;20217;-94
2021/01/10 14:10:21;;;;;;;9.35;8.43;;;;;;;;;;4834190;29;20292;-95
2021/01/10 14:12:50;;;;;;;10.18;9.10;;;;;;;;;;4833525;29;20206;-95
2021/01/10 14:15:18;;;;;;;11.88;9.40;;;;;;;;;;4833343;29;20240;-95
2021/01/10 14:17:45;;;;;;;10.05;8.82;;;;;;;;;;4834097;29;20824;-95
2021/01/10 14:20:13;;;;;;;15.25;10.80;;;;;;;;;;4834008;29;20241;-92
2021/01/10 14:22:40;;;;;;;12.35;9.75;;;;;;;;;;4832044;29;20209;-92
2021/01/10 14:25:09;;;;;;;14.52;9.10;;;;;;;;;;4831387;29;20265;-94
2021/01/10 14:27:39;;;;;;;13.50;10.07;;;;;;;;;;4831923;29;20206;-94
2021/01/10 14:30:09;;;;;;;12.63;10.10;;;;;;;;;;4830870;29;20462;-92
2021/01/10 14:32:36;;;;;;;13.25;10.27;;;;;;;;;;4830950;29;20555;-95
2021/01/10 14:35:03;;;;;;;14.05;11.80;;;;;;;;;;4831093;29;20608;-95
2021/01/10 14:37:30;;;;;;;11.80;9.80;;;;;;;;;;4833400;29;20217;-93
2021/01/10 14:39:57;;;;;;;12.43;9.80;;;;;;;;;;4830678;29;20216;-94
2021/01/10 14:42:24;;;;;;;11.23;10.07;;;;;;;;;;4831490;29;20284;-94
2021/01/10 14:44:52;;;;;;;11.90;9.98;;;;;;;;;;4831018;29;20246;-95
2021/01/10 14:47:23;;;;;;;11.05;9.07;;;;;;;;;;4831622;29;20616;-95
2021/01/10 14:49:50;;;;;;;12.65;10.43;;;;;;;;;;4812059;29;20214;-95